岡山空港の過去48時間の天気

岡山空港 (Okayama)

現在時刻: 7/19 09:10 JST (7/19 00:10 UTC) 以下の時間は現地時間です。

過去48時間のMETAR気象情報
時間 風向 風速(m/s) 視程 気温(℃) 湿度(%) 気圧(hPa) 天気現象
19 08:00 不定 1 8000m 28 79 1012
19 07:00 不定 1 8000m 27 89 1012 部分霧
19 06:15 不定 1 8000m 26 89 1012 部分霧
18 21:00 2 8000m 29 74 1011
18 20:00 3 8000m 30 70 1011
18 19:00 2 8000m 30 75 1011
18 18:00 不定 1 10km以上 31 70 1010
18 17:00 西南西 3 10km以上 32 63 1010
18 16:00 不定 2 10km以上 35 53 1010
18 15:00 西南西 2 10km以上 34 53 1011
18 14:00 3 10km以上 34 60 1011
18 13:00 2 9000m 34 60 1011
18 12:00 不定 2 8000m 33 63 1012
18 11:30 不定 1 8000m 33 67 1012
18 11:00 西南西 2 8000m 31 70 1012
18 10:18 不定 2 7000m 33 67 1012
18 10:00 不定 1 7000m 31 70 1012
18 09:00 不定 1 6000m 29 79 1013
18 08:00 不定 1 5000m 28 84 1013 もや
18 07:45 不定 1 5000m 28 84 1013 もや
18 07:00 不定 1 4500m 27 89 1013 もや 部分霧
18 06:41 不定 1 3500m 26 89 1013 もや 部分霧
18 06:15 東北東 1 2500m 25 94 1013 もや 部分霧
17 21:00 西 1 10km以上 28 79 1012
17 20:00 南西 1 10km以上 28 79 1011
17 19:00 南南東 1 10km以上 29 70 1011
17 18:00 南東 2 10km以上 30 70 1011
17 17:00 東南東 2 10km以上 31 70 1011
17 16:00 南東 2 10km以上 33 63 1011
17 15:00 2 10km以上 33 59 1011
17 14:00 不定 2 9000m 33 63 1012
17 13:00 南南東 2 9000m 34 63 1012
17 12:38 3 9000m 34 63 1012
17 12:00 不定 2 9000m 32 67 1013
17 11:00 2 9000m 33 67 1013
17 10:01 2 8000m 32 75 1013
17 10:00 2 8000m 31 75 1013
RJOB 182300Z VRB01KT 8000 NSC 28/24 Q1012
RJOB 182200Z VRB01KT 8000 PRFG FEW000 SCT040 27/25 Q1012
RJOB 182115Z VRB01KT 8000 PRFG FEW000 26/24 Q1012 RMK 1ST000 A2990 FG NE-E
RJOB 181200Z 35004KT 310V020 8000 FEW025 SCT/// 29/24 Q1011
RJOB 181100Z 35006KT 8000 FEW025 BKN/// 30/24 Q1011
RJOB 181000Z 35004KT 8000 FEW025 SCT100 BKN/// 30/25 Q1011
RJOB 180900Z VRB02KT 9999 FEW025 BKN/// 31/25 Q1010
RJOB 180800Z 25006KT 9999 FEW025 FEW030CB SCT050 BKN/// 32/24 Q1010
RJOB 180700Z VRB03KT 9999 FEW035 SCT/// 35/24 Q1010
RJOB 180600Z 24004KT 150V290 9999 FEW035 SCT/// 34/23 Q1011
RJOB 180500Z 18005KT 140V230 9999 FEW035 SCT/// 34/25 Q1011
RJOB 180400Z 17004KT 110V270 9000 FEW030 SCT/// 34/25 Q1011
RJOB 180300Z VRB03KT 8000 FEW025 SCT030 33/25 Q1012
RJOB 180230Z VRB02KT 8000 FEW025 SCT030 33/26 Q1012 RMK 1CU025 4CU030 A2989
RJOB 180200Z 24003KT 180V310 8000 FEW020 SCT025 31/25 Q1012
RJOB 180118Z VRB04KT 7000 FEW020 SCT025 33/26 Q1012 RMK 1CU020 3CU025 A2991
RJOB 180100Z VRB02KT 7000 FEW020 SCT025 31/25 Q1012
RJOB 180000Z VRB02KT 6000 FEW015 29/25 Q1013
RJOB 172300Z VRB02KT 5000 BR FEW020 28/25 Q1013
RJOB 172245Z VRB01KT 5000 BR FEW020 28/25 Q1013 RMK 1CU020 A2992
RJOB 172200Z VRB02KT 4500 BR PRFG FEW000 27/25 Q1013
RJOB 172141Z VRB02KT 3500 BR PRFG FEW000 SCT/// 26/24 Q1013 RMK 1ST000 A2992 FG NE-E
RJOB 172115Z 07002KT 2500 BR PRFG FEW000 SCT/// 25/24 Q1013 RMK 1ST000 A2992 FG NE-E
RJOB 171200Z 26002KT 9999 FEW025 SCT/// 28/24 Q1012
RJOB 171100Z 23002KT 9999 FEW025 SCT/// 28/24 Q1011
RJOB 171000Z 16002KT 9999 FEW030 BKN/// 29/23 Q1011
RJOB 170900Z 14003KT 090V160 9999 FEW030 BKN/// 30/24 Q1011
RJOB 170800Z 12004KT 090V160 9999 FEW030 BKN/// 31/25 Q1011
RJOB 170700Z 13004KT 080V160 9999 FEW035 BKN/// 33/25 Q1011
RJOB 170600Z 18003KT 120V280 9999 FEW035 BKN/// 33/24 Q1011
RJOB 170500Z VRB03KT 9000 FEW030 SCT035 BKN/// 33/25 Q1012
RJOB 170400Z 15004KT 060V210 9000 FEW025 SCT035 BKN/// 34/26 Q1012
RJOB 170338Z 10005KT 050V130 9000 FEW020 SCT030 BKN/// 34/26 Q1012 RMK 1CU020 3CU030 A2991
RJOB 170300Z VRB03KT 9000 FEW020 SCT030 BKN/// 32/25 Q1013
RJOB 170200Z 09004KT 050V130 9000 FEW025 SCT/// 33/26 Q1013
RJOB 170101Z 10003KT 030V190 8000 FEW020 BKN/// 32/27 Q1013 RMK 2CU020 A2994
RJOB 170100Z 10003KT 030V190 8000 FEW020 BKN/// 31/26 Q1013